createdAt,value
2023-11-16T00:00:54.521Z,9.97
2023-11-16T00:05:06.406Z,9.94
2023-11-16T00:09:18.094Z,10.04
2023-11-16T00:13:29.935Z,9.82
2023-11-16T00:17:41.671Z,9.95
2023-11-16T00:21:53.486Z,9.92
2023-11-16T00:26:05.499Z,9.98
2023-11-16T00:30:17.422Z,9.97
2023-11-16T00:34:29.269Z,9.98
2023-11-16T00:38:41.091Z,10.01
2023-11-16T00:42:52.918Z,9.97
2023-11-16T00:47:04.904Z,10.00
2023-11-16T00:51:17.360Z,9.96
2023-11-16T00:55:29.055Z,10.06
2023-11-16T00:59:42.310Z,10.12
2023-11-16T01:03:54.653Z,10.09
2023-11-16T01:08:10.761Z,10.07
2023-11-16T01:12:26.421Z,10.02
2023-11-16T01:16:44.160Z,9.92
2023-11-16T01:20:59.509Z,9.91
2023-11-16T01:25:16.620Z,9.77
2023-11-16T01:29:28.637Z,9.76
2023-11-16T01:34:06.860Z,9.87
2023-11-16T01:38:18.525Z,9.84
2023-11-16T01:42:30.235Z,9.82
2023-11-16T01:46:42.198Z,9.80
2023-11-16T01:50:55.054Z,9.79
2023-11-16T01:55:06.891Z,9.86
2023-11-16T01:59:20.032Z,9.78
2023-11-16T02:03:33.325Z,9.85
2023-11-16T02:07:46.103Z,9.77
2023-11-16T02:11:57.847Z,9.75
2023-11-16T02:16:09.735Z,9.70
2023-11-16T02:20:22.578Z,9.70
2023-11-16T02:24:34.924Z,9.75
2023-11-16T02:28:46.704Z,9.75
2023-11-16T02:32:58.396Z,9.71
2023-11-16T02:37:10.220Z,9.74
2023-11-16T02:41:21.946Z,9.77
2023-11-16T02:45:35.570Z,9.75
2023-11-16T02:49:47.400Z,9.63
2023-11-16T02:54:03.519Z,9.67
2023-11-16T02:58:15.364Z,9.67
2023-11-16T03:02:27.106Z,9.66
2023-11-16T03:06:40.338Z,9.62
2023-11-16T03:10:52.062Z,9.64
2023-11-16T03:15:06.412Z,9.62
2023-11-16T03:19:20.461Z,9.59
2023-11-16T03:23:32.184Z,9.57
2023-11-16T03:27:45.403Z,9.57
2023-11-16T03:31:58.059Z,9.54
2023-11-16T03:36:09.922Z,9.55
2023-11-16T03:40:21.600Z,9.49
2023-11-16T03:44:33.705Z,9.45
2023-11-16T03:48:46.754Z,9.38
2023-11-16T03:52:58.425Z,9.22
2023-11-16T03:57:10.350Z,9.29
2023-11-16T04:01:22.095Z,9.26
2023-11-16T04:05:34.519Z,9.34
2023-11-16T04:09:46.869Z,9.30
2023-11-16T04:13:59.163Z,9.28
2023-11-16T04:18:11.702Z,9.13
2023-11-16T04:22:23.820Z,9.05
2023-11-16T04:26:38.766Z,9.07
2023-11-16T04:30:51.533Z,9.01
2023-11-16T04:35:09.374Z,9.10
2023-11-16T04:39:22.773Z,9.17
2023-11-16T04:43:34.770Z,9.27
2023-11-16T04:47:48.029Z,9.32
2023-11-16T04:51:59.917Z,9.37
2023-11-16T04:56:11.687Z,9.40
2023-11-16T05:00:23.316Z,9.50
2023-11-16T05:04:34.969Z,9.46
2023-11-16T05:08:46.713Z,9.49
2023-11-16T05:12:58.948Z,9.52
2023-11-16T05:17:10.609Z,9.55
2023-11-16T05:21:22.822Z,9.54
2023-11-16T05:25:35.941Z,9.49
2023-11-16T05:29:47.611Z,9.46
2023-11-16T05:33:59.364Z,9.36
2023-11-16T05:38:11.374Z,9.25
2023-11-16T05:42:23.257Z,9.11
2023-11-16T05:46:35.007Z,9.02
2023-11-16T05:50:47.918Z,8.88
2023-11-16T05:54:59.973Z,8.81
2023-11-16T05:59:11.902Z,8.77
2023-11-16T06:03:28.447Z,8.56
2023-11-16T06:07:40.277Z,8.63
2023-11-16T06:11:52.025Z,8.66
2023-11-16T06:16:04.130Z,8.64
2023-11-16T06:20:16.490Z,8.65
2023-11-16T06:24:28.204Z,8.60
2023-11-16T06:28:39.782Z,8.61
2023-11-16T06:32:51.444Z,8.47
2023-11-16T06:37:05.220Z,8.44
2023-11-16T06:41:17.537Z,8.40
2023-11-16T06:45:29.325Z,8.30
2023-11-16T06:49:42.693Z,8.21
2023-11-16T06:53:54.308Z,8.12
2023-11-16T06:58:07.889Z,8.03
2023-11-16T07:02:20.891Z,7.95
2023-11-16T07:06:32.591Z,7.99
2023-11-16T07:10:44.319Z,7.99
2023-11-16T07:14:56.437Z,8.03
2023-11-16T07:19:08.097Z,8.10
2023-11-16T07:23:21.300Z,8.14
2023-11-16T07:27:33.307Z,8.25
2023-11-16T07:31:45.174Z,8.29
2023-11-16T07:35:57.333Z,8.42
2023-11-16T07:40:12.456Z,8.46
2023-11-16T07:44:24.447Z,8.58
2023-11-16T07:48:36.095Z,8.67
2023-11-16T07:52:48.981Z,8.79
2023-11-16T07:57:04.118Z,8.87
2023-11-16T08:01:18.435Z,8.92
2023-11-16T08:05:32.255Z,8.92
2023-11-16T08:09:46.310Z,8.89
2023-11-16T08:13:58.592Z,8.96
2023-11-16T08:18:13.052Z,9.02
2023-11-16T08:22:25.701Z,9.14
2023-11-16T08:26:38.337Z,9.17
2023-11-16T08:30:56.916Z,9.07
2023-11-16T08:35:08.783Z,9.22
2023-11-16T08:39:21.076Z,9.27
2023-11-16T08:43:36.804Z,9.35
2023-11-16T08:47:53.113Z,9.48
2023-11-16T08:52:07.020Z,9.66
2023-11-16T08:56:23.817Z,9.81
2023-11-16T09:00:46.869Z,9.83
2023-11-16T09:04:58.653Z,9.84
2023-11-16T09:09:30.306Z,9.82
2023-11-16T09:13:42.566Z,9.81
2023-11-16T09:17:56.038Z,9.79
2023-11-16T09:22:10.582Z,9.78
2023-11-16T09:26:25.366Z,9.86
2023-11-16T09:30:40.378Z,9.82
2023-11-16T09:35:02.580Z,9.89
2023-11-16T09:39:23.577Z,9.90
2023-11-16T09:43:38.350Z,9.95
2023-11-16T09:47:58.444Z,9.99
2023-11-16T09:52:10.481Z,10.03
2023-11-16T09:56:36.081Z,10.10
2023-11-16T10:00:58.886Z,10.07
2023-11-16T10:05:24.973Z,10.09
2023-11-16T10:09:47.324Z,10.00
2023-11-16T10:14:03.816Z,9.97
2023-11-16T10:18:15.610Z,9.92
2023-11-16T10:22:28.740Z,9.96
2023-11-16T10:26:40.860Z,10.01
2023-11-16T10:31:00.214Z,10.08
2023-11-16T10:35:16.656Z,9.99
2023-11-16T10:39:29.192Z,9.93
2023-11-16T10:43:41.694Z,9.89
2023-11-16T10:47:54.537Z,9.88
2023-11-16T10:52:08.751Z,9.88
2023-11-16T10:56:20.715Z,9.87
2023-11-16T11:00:36.097Z,9.77
2023-11-16T11:04:55.154Z,9.82
2023-11-16T11:09:09.469Z,9.62
2023-11-16T11:13:27.953Z,9.81
2023-11-16T11:17:44.080Z,9.76
2023-11-16T11:22:00.808Z,9.70
2023-11-16T11:26:14.806Z,9.65
2023-11-16T11:30:28.333Z,9.46
2023-11-16T11:34:40.907Z,9.62
2023-11-16T11:38:54.501Z,9.63
2023-11-16T11:43:07.269Z,9.53
2023-11-16T11:47:23.658Z,9.77
2023-11-16T12:15:54.760Z,9.59
2023-11-16T12:20:10.352Z,9.75
2023-11-16T12:24:25.082Z,9.72
2023-11-16T12:28:36.725Z,9.63
2023-11-16T12:32:48.707Z,9.70
2023-11-16T12:37:03.138Z,9.60
2023-11-16T12:41:18.161Z,9.61
2023-11-16T12:45:32.245Z,9.48
2023-11-16T12:49:44.383Z,9.43
2023-11-16T12:53:56.237Z,9.34
2023-11-16T12:58:07.955Z,9.33
2023-11-16T13:02:19.914Z,9.22
2023-11-16T13:06:33.746Z,9.27
2023-11-16T13:10:45.522Z,9.23
2023-11-16T13:14:58.237Z,9.20
2023-11-16T13:19:10.001Z,9.27
2023-11-16T13:23:21.792Z,9.29
2023-11-16T13:27:39.080Z,9.25
2023-11-16T13:31:57.625Z,9.19
2023-11-16T13:36:09.841Z,9.13
2023-11-16T13:40:21.913Z,9.17
2023-11-16T13:44:34.475Z,9.23
2023-11-16T13:48:46.987Z,9.21
2023-11-16T13:52:58.821Z,9.20
2023-11-16T13:57:10.532Z,9.16
2023-11-16T14:01:22.255Z,9.10
2023-11-16T14:05:36.296Z,9.26
2023-11-16T14:09:47.980Z,9.27
2023-11-16T14:13:59.673Z,9.19
2023-11-16T14:18:11.425Z,9.28
2023-11-16T14:22:23.304Z,9.28
2023-11-16T14:26:35.272Z,9.14
2023-11-16T14:30:47.009Z,9.20
2023-11-16T14:35:10.113Z,9.22
2023-11-16T14:39:29.125Z,9.14
2023-11-16T14:43:42.109Z,9.24
2023-11-16T14:47:53.924Z,9.30
2023-11-16T14:52:06.392Z,9.31
2023-11-16T14:56:19.096Z,9.23
2023-11-16T15:00:32.143Z,9.25
2023-11-16T15:04:44.137Z,9.21
2023-11-16T15:08:55.885Z,9.16
2023-11-16T15:13:08.064Z,8.99
2023-11-16T15:17:20.000Z,8.94
2023-11-16T15:21:31.715Z,8.95
2023-11-16T15:25:43.362Z,8.93
2023-11-16T15:29:55.707Z,8.88
2023-11-16T15:34:07.686Z,8.75
2023-11-16T15:38:19.390Z,8.70
2023-11-16T15:42:34.397Z,8.72
2023-11-16T15:46:46.416Z,8.62
2023-11-16T15:50:58.226Z,8.62
2023-11-16T15:55:13.972Z,8.54
2023-11-16T15:59:25.726Z,8.52
2023-11-16T16:03:37.670Z,8.43
2023-11-16T16:07:51.295Z,8.45
2023-11-16T16:12:03.148Z,8.28
2023-11-16T16:16:15.326Z,8.35
2023-11-16T16:20:27.164Z,8.35
2023-11-16T16:24:38.874Z,8.22
2023-11-16T16:28:50.770Z,8.17
2023-11-16T16:33:03.627Z,8.12
2023-11-16T16:37:17.623Z,8.02
2023-11-16T16:41:29.305Z,8.00
2023-11-16T16:45:47.445Z,7.82
2023-11-16T16:49:59.177Z,7.78
2023-11-16T16:54:14.288Z,7.71
2023-11-16T16:58:25.956Z,7.58
2023-11-16T17:02:37.706Z,7.59
2023-11-16T17:06:49.557Z,7.54
2023-11-16T17:11:01.351Z,7.54
2023-11-16T17:15:18.725Z,7.57
2023-11-16T17:19:31.313Z,7.55
2023-11-16T17:23:43.964Z,7.41
2023-11-16T17:27:55.660Z,7.38
2023-11-16T17:32:09.732Z,7.48
2023-11-16T17:36:21.351Z,7.48
2023-11-16T17:40:33.041Z,7.27
2023-11-16T17:44:44.706Z,7.38
2023-11-16T17:48:59.697Z,7.33
2023-11-16T17:53:34.226Z,7.39
2023-11-16T17:57:50.171Z,7.29
2023-11-16T18:02:01.933Z,7.31
2023-11-16T18:06:13.898Z,7.32
2023-11-16T18:10:25.450Z,7.27
2023-11-16T18:14:37.206Z,7.32
2023-11-16T18:18:50.393Z,7.32
2023-11-16T18:23:02.172Z,7.19
2023-11-16T18:27:16.836Z,7.31
2023-11-16T18:31:30.843Z,7.29
2023-11-16T18:35:43.083Z,7.20
2023-11-16T18:39:54.695Z,7.24
2023-11-16T18:44:07.002Z,7.27
2023-11-16T18:48:18.650Z,7.19
2023-11-16T18:52:30.282Z,7.09
2023-11-16T18:56:41.866Z,7.13
2023-11-16T19:00:53.500Z,7.10
2023-11-16T19:05:08.562Z,7.23
2023-11-16T19:09:22.556Z,7.16
2023-11-16T19:13:34.265Z,7.16
2023-11-16T19:17:45.992Z,7.11
2023-11-16T19:22:08.274Z,7.09
2023-11-16T19:26:20.382Z,7.05
2023-11-16T19:30:32.305Z,6.94
2023-11-16T19:34:44.140Z,6.86
2023-11-16T19:38:57.477Z,6.95
2023-11-16T19:43:11.710Z,6.94
2023-11-16T19:47:33.316Z,6.98
2023-11-16T19:51:47.624Z,6.95
2023-11-16T19:55:59.404Z,6.91
2023-11-16T20:00:14.859Z,6.84
2023-11-16T20:04:28.033Z,6.86
2023-11-16T20:08:39.990Z,6.78
2023-11-16T20:12:51.649Z,6.78
2023-11-16T20:17:08.216Z,6.76
2023-11-16T20:21:20.902Z,6.76
2023-11-16T20:25:34.469Z,6.69
2023-11-16T20:29:46.202Z,6.67
2023-11-16T20:33:58.366Z,6.67
2023-11-16T20:38:11.179Z,6.63
2023-11-16T20:42:23.004Z,6.66
2023-11-16T20:46:34.921Z,6.62
2023-11-16T20:50:46.948Z,6.61
2023-11-16T20:54:59.653Z,6.52
2023-11-16T20:59:11.311Z,6.54
2023-11-16T21:03:23.068Z,6.50
2023-11-16T21:07:35.686Z,6.46
2023-11-16T21:11:47.845Z,6.45
2023-11-16T21:15:59.575Z,6.39
2023-11-16T21:20:13.962Z,6.45
2023-11-16T21:24:26.143Z,6.45
2023-11-16T21:28:40.223Z,6.42
2023-11-16T21:32:52.567Z,6.44
2023-11-16T21:37:05.949Z,6.46
2023-11-16T21:41:17.677Z,6.41
2023-11-16T21:45:30.279Z,6.38
2023-11-16T21:49:41.957Z,6.36
2023-11-16T21:53:53.626Z,6.39
2023-11-16T21:58:06.080Z,6.37
2023-11-16T22:02:17.828Z,6.31
2023-11-16T22:06:29.469Z,6.31
2023-11-16T22:10:44.344Z,6.26
2023-11-16T22:14:56.123Z,6.21
2023-11-16T22:19:08.261Z,6.17
2023-11-16T22:23:19.900Z,6.13
2023-11-16T22:27:31.503Z,6.12
2023-11-16T22:31:43.439Z,6.09
2023-11-16T22:35:56.433Z,6.12
2023-11-16T22:40:10.984Z,6.09
2023-11-16T22:44:22.734Z,6.07
2023-11-16T22:48:37.448Z,6.04
2023-11-16T22:52:50.243Z,6.09
2023-11-16T22:57:02.002Z,6.00
2023-11-16T23:01:14.830Z,5.96
2023-11-16T23:05:27.644Z,5.96
2023-11-16T23:09:40.959Z,5.94
2023-11-16T23:13:52.629Z,5.91
2023-11-16T23:18:04.958Z,5.91
2023-11-16T23:22:17.062Z,5.88
2023-11-16T23:26:29.252Z,5.83
2023-11-16T23:30:43.734Z,5.80
2023-11-16T23:34:55.826Z,5.78
2023-11-16T23:39:07.857Z,5.73
2023-11-16T23:43:20.135Z,5.73
2023-11-16T23:47:32.306Z,5.72
2023-11-16T23:51:45.927Z,5.67
2023-11-16T23:55:59.421Z,5.60
